Station: Bedout Island  

  Atmospheric Gas Attenuation - ITU Rec 676-11   ----------------- dB/100km -----------------
Date Time Temp RH % AH g/m3 Dew Point Wind Direction Speed kph Gust kph Barometer mB Rainfall Since 9am 24GHz 47GHz 76GHz 122GHz 134GHz 241GHz
06/09 19:00 22.4 75 14.89 17.8 41 46 1013.8 32.5 33.7 60.8 160.6 170.4 591.0
06/09 19:16 22.3 70 13.82 16.7 43 44 1014 30.2 31.8 56.3 148.5 155.5 539.0
06/09 17:12 23.4 35 41 1012.6
06/09 17:10 23.3 37 43 1012.6
06/09 17:00 23.5 35 41 1012.6
06/09 16:50 23.7 35 43 1012.5
06/09 16:40 23.9 35 41 1012.4
06/09 16:30 24.1 33 39 1012.5
06/09 16:20 24.4 32 37 1012.6
06/09 16:10 24.5 33 39 1012.5
06/09 16:00 24.7 32 39 1012.4
06/09 15:50 24.8 35 39 1012.4
06/09 15:40 24.8 32 37 1012.4
06/09 15:30 25 33 43 1012.4
06/09 15:20 25 35 41 1012.4
06/09 15:10 25.2 39 43 1012.4
06/09 15:00 25.3 35 41 1012.5
06/09 14:50 25.5 35 41 1012.5
06/09 14:00 25.6 37 1012.9
06/09 09:30 24 46 54 1015.4
06/09 09:24 24 46 50 1015.4
06/09 09:20 24.2 44 52 1015.3
06/09 09:00 23.9 46 1015.4
06/09 08:53 23.9 50 56 1015.4
06/09 08:50 23.8 46 56 1015.4
06/09 08:38 23.7 48 54 1015.4
06/09 08:30 23.9 44 52 1015.3
06/09 08:20 23.9 43 48 1015.3
06/09 08:10 23.7 44 50 1015.3
06/09 08:00 23.8 39 48 1015.2
06/09 07:50 23.6 39 48 1015.1
06/09 07:40 23.6 37 41 1015.1
06/09 07:28 23.5 37 41 1014.9
06/09 07:20 23.5 37 46 1014.8
06/09 07:10 23.2 37 43 1014.7
06/09 07:00 23.1 37 43 1014.7
06/09 06:50 22.9 37 44 1014.4
06/09 06:40 22.8 37 43 1014.3
06/09 06:30 22.8 35 41 1014.2
06/09 06:19 22.7 35 39 1014.1
06/09 06:10 22.8 35 41 1014.1
06/09 06:00 22.9 33 39 1014
06/09 05:50 23 33 39 1013.8
06/09 05:40 23 35 39 1013.8
06/09 05:30 22.8 35 41 1013.8
06/09 04:30 22.9 32 37 1013.2
06/09 04:52 23.1 35 37 1013.3
06/09 04:50 23 35 37 1013.3
06/09 04:40 22.9 37 41 1013.3
06/09 03:40 23.1 30 37 1013.2
06/09 03:30 23.1 33 39 1013.2
06/09 02:30 23.1 35 41 1013.4
06/09 02:46 23.2 35 39 1013.4
06/09 02:40 23.2 35 39 1013.4
06/09 01:30 23.4 35 43 1014.2
06/09 00:00 23.4 32 1014.8
05/09 19:00 24 26 30 1015.1
05/09 18:00 24.4 20 24 1014.8
05/09 17:59 24.4 20 22 1014.8
05/09 17:46 24.6 22 24 1014.6
05/09 17:40 24.8 20 24 1014.6
05/09 17:00 25.9 22 26 1014.3
05/09 17:10 25.6 22 24 1014.3
05/09 15:00 27.9 17 19 1014.4
05/09 15:19 27.9 20 22 1014.3
05/09 14:30 27.8 15 19 1014.5
05/09 14:47 27.5 15 19 1014.4
05/09 13:30 27.6 11 13 1015.2
05/09 13:46 27.8 13 15 1014.9
05/09 11:00 27.2 7 11 1016.8
05/09 10:42 27.1 6 7 1017
05/09 10:36 27.2 7 9 1017.1
05/09 09:05 26.1 9 11 1017.4
05/09 09:00 25.8 9 13 1017.4
05/09 08:48 26 11 13 1017.3
05/09 08:40 25.8 11 17 1017.3
05/09 08:30 25.9 13 15 1017.1
05/09 08:20 25.4 13 15 1017.2
05/09 08:10 25.2 13 15 1017.1
05/09 08:00 25.1 13 15 1017.1
05/09 07:50 24.8 11 15 1017.1
05/09 07:40 24.4 15 17 1016.9
05/09 07:30 24.2 11 15 1016.9
05/09 07:15 23.7 11 11 1016.7
05/09 07:10 23.6 13 15 1016.5
05/09 06:51 23 9 9 1016.4
05/09 06:50 23.1 13 15 1016.4
05/09 06:40 22.8 13 15 1016.3
05/09 06:16 22.5 11 13 1016
05/09 06:10 22.6 15 15 1016
05/09 05:57 22.5 11 13 1015.8
05/09 05:50 22.5 13 15 1015.7
05/09 05:40 22.6 15 15 1015.6
05/09 04:30 22.5 13 15 1015.1
05/09 04:53 22.5 11 13 1015.3
05/09 04:00 22.7 15 19 1015
05/09 04:06 22.7 13 15 1015
05/09 03:30 22.7 15 19 1015
05/09 03:33 22.7 13 15 1015
05/09 03:00 22.7 15 17 1015

Last Refresh: 06-Sep-2026 22:51:49

Bureau of Meteorology